Gerd Maersk — OYGM2 — position and weather

sailwx.info

Track history (hours):
 
Tides and Currents Weather Stations Pressure Air Temp Water Temp Dewpoint Dewpoint Depression Visibility Wind Speed Wind Dir Waves Ship Positions

Gerd Maersk

Last reported at 2017-Feb-07 23:22 UTC. Time now 2017-Feb-22 11:00 UTC.
Position N 37°43' E 015°49'.
Warning: this ship's position is 14 days out of date.

Length 367 m; draft 15 m.

Type: Ship (hazmat cat A). MMSI: 220415000.

Date/timePositionNaut miles runAvg speedWind from/ knotsBaromVisibWave heightAir tempDewpointWater temp
2017-Feb-07 23:22N 37°43' E 015°49'1821.5
2017-Feb-07 22:33N 37°56' E 015°34'1918.9
2017-Feb-07 21:34N 38°15' E 015°37'1716.7
2017-Feb-07 20:34N 38°27' E 015°52'3 2.5
2017-Feb-07 19:33N 38°28' E 015°55'0 0.0
2017-Feb-07 18:30N 38°28' E 015°55'0 0.0
2017-Feb-07 17:30N 38°28' E 015°55'0 0.0
2017-Feb-07 16:33N 38°28' E 015°55'0 0.0
2017-Feb-07 15:33N 38°28' E 015°55'0 0.0
2017-Feb-07 14:33N 38°28' E 015°55'0 0.0
2017-Feb-07 13:30N 38°28' E 015°55'0 0.0
2017-Feb-07 12:33N 38°28' E 015°55'0 0.0
2017-Feb-07 11:33N 38°28' E 015°55'0 0.0
2017-Feb-07 10:30N 38°28' E 015°55'0 0.0
2017-Feb-07 09:33N 38°28' E 015°55'0 0.0
2017-Feb-07 08:33N 38°28' E 015°55'0 0.0
2017-Feb-07 07:33N 38°28' E 015°55'0 0.0
2017-Feb-07 06:30N 38°28' E 015°55'0 0.0
2017-Feb-07 05:33N 38°28' E 015°55'0 0.0
2017-Feb-07 04:30N 38°28' E 015°55'0 0.0
2017-Feb-07 03:33N 38°28' E 015°55'0 0.0
2017-Feb-07 02:33N 38°28' E 015°55'0 0.0
2017-Feb-07 01:33N 38°28' E 015°55'0 0.0
2017-Feb-07 00:33N 38°28' E 015°55'0 0.0
2017-Feb-06 23:33N 38°28' E 015°55'0 0.0
2017-Feb-06 22:33N 38°28' E 015°55'0 0.0
2017-Feb-06 21:30N 38°28' E 015°55'0 0.0
2017-Feb-06 20:33N 38°28' E 015°55'0 0.0
2017-Feb-06 19:27N 38°28' E 015°55'0 0.0
2017-Feb-06 18:33N 38°28' E 015°55'0 0.0
2017-Feb-06 17:33N 38°28' E 015°55'0 0.0
2017-Feb-06 16:33N 38°28' E 015°55'3 2.9
2017-Feb-06 15:34N 38°27' E 015°51'3 3.5
2017-Feb-06 14:34N 38°27' E 015°47'0 0.5
2017-Feb-06 13:33N 38°27' E 015°47'1 0.9
2017-Feb-06 12:33N 38°26' E 015°48'5 4.6
2017-Feb-06 11:34N 38°21' E 015°46'1413.8
2017-Feb-06 10:33N 38°10' E 015°37'1615.5
2017-Feb-06 09:33N 37°54' E 015°39'37915.0
2017-Feb-05 08:17N 44°09' E 014°22'1521.4
2017-Feb-05 07:33N 44°23' E 014°13'2121.1
2017-Feb-05 06:33N 44°44' E 014°09'2421.7
2017-Feb-05 05:26N 45°08' E 014°14'1415.6
2017-Feb-05 04:32N 45°19' E 014°27'3 0.1
2017-Feb-04 03:33N 45°18' E 014°24'1110.3
2017-Feb-04 02:30N 45°08' E 014°16'1111.9
2017-Feb-04 01:33N 44°57' E 014°13'1212.1
2017-Feb-04 00:33N 44°47' E 014°04'1110.7
2017-Feb-03 23:33N 44°42' E 013°51'1211.9
2017-Feb-03 22:33N 44°50' E 013°38'1212.2
2017-Feb-03 21:33N 44°59' E 013°25'1212.5
2017-Feb-03 20:33N 45°04' E 013°10'1211.5
2017-Feb-03 19:33N 45°15' E 013°04'1212.0
2017-Feb-03 18:33N 45°27' E 013°04'1211.9
2017-Feb-03 17:33N 45°33' E 013°18'1212.4
2017-Feb-03 16:33N 45°38' E 013°34'8 8.2
2017-Feb-03 15:33N 45°38' E 013°46'0 0.0
2017-Feb-03 14:30N 45°38' E 013°46'0 0.0
2017-Feb-03 13:24N 45°38' E 013°46'0 0.0
2017-Feb-03 12:33N 45°38' E 013°46'0 0.0
2017-Feb-03 11:33N 45°38' E 013°46'0 0.0
2017-Feb-03 10:33N 45°38' E 013°46'0 0.0
2017-Feb-03 09:30N 45°38' E 013°46'0 0.0
2017-Feb-03 08:33N 45°38' E 013°46'0 0.0
2017-Feb-03 07:33N 45°38' E 013°46'0 0.0
2017-Feb-03 06:27N 45°38' E 013°46'0 0.0
2017-Feb-03 05:30N 45°38' E 013°46'0 0.0
2017-Feb-03 04:33N 45°38' E 013°46'0 0.0
2017-Feb-03 03:21N 45°38' E 013°46'0 0.0
2017-Feb-03 02:30N 45°38' E 013°46'0 0.0
2017-Feb-03 01:30N 45°38' E 013°46'0 0.0
2017-Feb-03 00:33N 45°38' E 013°46'0 0.0
2017-Feb-02 23:33N 45°38' E 013°46'0 0.0
2017-Feb-02 22:33N 45°38' E 013°46'0 0.0
2017-Feb-02 21:33N 45°38' E 013°46'0 0.0
2017-Feb-02 20:33N 45°38' E 013°46'0 0.0
2017-Feb-02 19:30N 45°38' E 013°46'0 0.0
2017-Feb-02 18:33N 45°38' E 013°46'0 0.0
2017-Feb-02 17:33N 45°38' E 013°46'0 0.0
2017-Feb-02 16:24N 45°38' E 013°46'0 0.0
2017-Feb-02 15:30N 45°38' E 013°46'0 0.0
2017-Feb-02 14:27N 45°38' E 013°46'0 0.0
2017-Feb-02 13:33N 45°38' E 013°46'0 0.0
2017-Feb-02 12:33N 45°38' E 013°46'0 0.0
2017-Feb-02 11:33N 45°38' E 013°46'0 0.0
2017-Feb-02 10:33N 45°38' E 013°46'0 0.0
2017-Feb-02 09:30N 45°38' E 013°46'0 0.0
2017-Feb-02 08:33N 45°38' E 013°46'0 0.0
2017-Feb-02 07:30N 45°38' E 013°46'0 0.0
2017-Feb-02 06:33N 45°38' E 013°46'0 0.0
2017-Feb-02 05:30N 45°38' E 013°46'0 0.0
2017-Feb-02 04:33N 45°38' E 013°46'0 0.0
2017-Feb-02 03:30N 45°38' E 013°46'0 0.0
2017-Feb-02 02:33N 45°38' E 013°46'0 0.0
2017-Feb-02 01:27N 45°38' E 013°46'0 0.0
2017-Feb-02 00:21N 45°38' E 013°46'0 0.6
2017-Feb-01 23:34N 45°37' E 013°45'4 4.3
2017-Feb-01 22:33N 45°36' E 013°39'4 4.3
2017-Feb-01 21:33N 45°33' E 013°44'0 0.1
2017-Feb-01 20:24N 45°33' E 013°44'0 0.0
2017-Feb-01 19:30N 45°33' E 013°44'0 0.0
2017-Feb-01 18:24N 45°33' E 013°44'0 0.0
2017-Feb-01 17:30N 45°33' E 013°44'0 0.0
2017-Feb-01 16:33N 45°33' E 013°44'0 0.0
2017-Feb-01 15:27N 45°33' E 013°44'0 0.0
2017-Feb-01 14:18N 45°33' E 013°44'0 0.0
2017-Feb-01 12:33N 45°33' E 013°44'0 0.0
2017-Feb-01 11:33N 45°33' E 013°44'0 0.0
2017-Feb-01 10:30N 45°33' E 013°44'0 0.0
2017-Feb-01 09:30N 45°33' E 013°44'0 0.0
2017-Feb-01 08:27N 45°33' E 013°44'0 0.0
2017-Feb-01 07:30N 45°33' E 013°44'0 0.0
2017-Feb-01 06:33N 45°33' E 013°44'0 0.0
2017-Feb-01 05:30N 45°33' E 013°44'0 0.0
2017-Feb-01 04:33N 45°33' E 013°44'0 0.0
2017-Feb-01 03:30N 45°33' E 013°44'0 0.0
2017-Feb-01 02:33N 45°33' E 013°44'0 0.0
2017-Feb-01 01:30N 45°33' E 013°44'0 0.0
2017-Feb-01 00:21N 45°33' E 013°44'0 0.0
2017-Jan-31 23:33N 45°33' E 013°44'0 0.0
2017-Jan-31 22:33N 45°33' E 013°44'0 0.0
2017-Jan-31 21:27N 45°33' E 013°44'0 0.0
2017-Jan-31 20:33N 45°33' E 013°44'0 0.0
2017-Jan-31 19:33N 45°33' E 013°44'0 0.0
2017-Jan-31 18:33N 45°33' E 013°44'0 0.0
2017-Jan-31 17:30N 45°33' E 013°44'0 0.0
2017-Jan-31 16:30N 45°33' E 013°44'0 0.0
2017-Jan-31 15:33N 45°33' E 013°44'0 0.0
2017-Jan-31 14:33N 45°33' E 013°44'0 0.0
2017-Jan-31 13:33N 45°33' E 013°44'0 0.0
2017-Jan-31 12:33N 45°33' E 013°44'0 0.0
2017-Jan-31 11:27N 45°33' E 013°44'0 0.0
2017-Jan-31 10:27N 45°33' E 013°44'0 0.0
2017-Jan-31 09:27N 45°33' E 013°44'0 0.0
2017-Jan-31 08:27N 45°33' E 013°44'0 0.0
2017-Jan-31 07:33N 45°33' E 013°44'0 0.0
2017-Jan-31 06:33N 45°33' E 013°44'0 0.0
2017-Jan-31 05:33N 45°33' E 013°44'0 0.0
2017-Jan-31 04:33N 45°33' E 013°44'0 0.0
2017-Jan-31 03:30N 45°33' E 013°44'0 0.0
2017-Jan-31 02:33N 45°33' E 013°44'0 0.0
2017-Jan-31 01:21N 45°33' E 013°44'0 0.0
2017-Jan-31 00:27N 45°33' E 013°44'0 0.0
2017-Jan-30 23:30N 45°33' E 013°44'0 0.0
2017-Jan-30 22:33N 45°33' E 013°44'0 0.0
2017-Jan-30 21:33N 45°33' E 013°44'0 0.0
2017-Jan-30 20:33N 45°33' E 013°44'0 0.0
2017-Jan-30 19:33N 45°33' E 013°44'0 0.0
2017-Jan-30 18:27N 45°33' E 013°44'0 0.0
2017-Jan-30 17:27N 45°33' E 013°44'0 0.0
2017-Jan-30 16:27N 45°33' E 013°44'0 0.0
2017-Jan-30 15:30N 45°33' E 013°44'0 0.0
2017-Jan-30 14:33N 45°33' E 013°44'0 0.0
2017-Jan-30 13:33N 45°33' E 013°44'0 0.0
2017-Jan-30 12:33N 45°33' E 013°44'0 0.0
2017-Jan-30 11:33N 45°33' E 013°44'0 0.0
2017-Jan-30 10:33N 45°33' E 013°44'0 0.0
2017-Jan-30 09:33N 45°33' E 013°44'1 0.6
2017-Jan-30 08:33N 45°33' E 013°43'4 3.6
2017-Jan-30 07:33N 45°34' E 013°38'0 0.5
2017-Jan-30 06:33N 45°35' E 013°38'3 2.9
2017-Jan-30 05:33N 45°35' E 013°34'6 5.6
2017-Jan-30 04:33N 45°32' E 013°26'1 1.2
2017-Jan-30 03:33N 45°32' E 013°25'4 4.0
2017-Jan-30 02:33N 45°29' E 013°20'1515.3
2017-Jan-30 01:33N 45°15' E 013°13'1919.4
2017-Jan-30 00:33N 44°57' E 013°24'1919.4
2017-Jan-29 23:33N 44°41' E 013°39'1919.4
2017-Jan-29 22:33N 44°24' E 013°53'2219.5
2017-Jan-29 21:27N 44°06' E 014°10'  
Track history (hours):
 
Tides and Currents Weather Stations Pressure Air Temp Water Temp Dewpoint Dewpoint Depression Visibility Wind Speed Wind Dir Waves Ship Positions

Gerd Maersk

Last reported at 2017-Feb-07 23:22 UTC. Time now 2017-Feb-22 11:00 UTC.
Position N 37°43' E 015°49'.
Warning: this ship's position is 14 days out of date.

Length 367 m; draft 15 m.

Type: Ship (hazmat cat A). MMSI: 220415000.

Date/timePositionNaut miles runAvg speedWind from/ knotsBaromVisibWave heightAir tempDewpointWater temp
2017-Feb-07 23:22N 37°43' E 015°49'1821.5
2017-Feb-07 22:33N 37°56' E 015°34'1918.9
2017-Feb-07 21:34N 38°15' E 015°37'1716.7
2017-Feb-07 20:34N 38°27' E 015°52'3 2.5
2017-Feb-07 19:33N 38°28' E 015°55'0 0.0
2017-Feb-07 18:30N 38°28' E 015°55'0 0.0
2017-Feb-07 17:30N 38°28' E 015°55'0 0.0
2017-Feb-07 16:33N 38°28' E 015°55'0 0.0
2017-Feb-07 15:33N 38°28' E 015°55'0 0.0
2017-Feb-07 14:33N 38°28' E 015°55'0 0.0
2017-Feb-07 13:30N 38°28' E 015°55'0 0.0
2017-Feb-07 12:33N 38°28' E 015°55'0 0.0
2017-Feb-07 11:33N 38°28' E 015°55'0 0.0
2017-Feb-07 10:30N 38°28' E 015°55'0 0.0
2017-Feb-07 09:33N 38°28' E 015°55'0 0.0
2017-Feb-07 08:33N 38°28' E 015°55'0 0.0
2017-Feb-07 07:33N 38°28' E 015°55'0 0.0
2017-Feb-07 06:30N 38°28' E 015°55'0 0.0
2017-Feb-07 05:33N 38°28' E 015°55'0 0.0
2017-Feb-07 04:30N 38°28' E 015°55'0 0.0
2017-Feb-07 03:33N 38°28' E 015°55'0 0.0
2017-Feb-07 02:33N 38°28' E 015°55'0 0.0
2017-Feb-07 01:33N 38°28' E 015°55'0 0.0
2017-Feb-07 00:33N 38°28' E 015°55'0 0.0
2017-Feb-06 23:33N 38°28' E 015°55'0 0.0
2017-Feb-06 22:33N 38°28' E 015°55'0 0.0
2017-Feb-06 21:30N 38°28' E 015°55'0 0.0
2017-Feb-06 20:33N 38°28' E 015°55'0 0.0
2017-Feb-06 19:27N 38°28' E 015°55'0 0.0
2017-Feb-06 18:33N 38°28' E 015°55'0 0.0
2017-Feb-06 17:33N 38°28' E 015°55'0 0.0
2017-Feb-06 16:33N 38°28' E 015°55'3 2.9
2017-Feb-06 15:34N 38°27' E 015°51'3 3.5
2017-Feb-06 14:34N 38°27' E 015°47'0 0.5
2017-Feb-06 13:33N 38°27' E 015°47'1 0.9
2017-Feb-06 12:33N 38°26' E 015°48'5 4.6
2017-Feb-06 11:34N 38°21' E 015°46'1413.8
2017-Feb-06 10:33N 38°10' E 015°37'1615.5
2017-Feb-06 09:33N 37°54' E 015°39'37915.0
2017-Feb-05 08:17N 44°09' E 014°22'1521.4
2017-Feb-05 07:33N 44°23' E 014°13'2121.1
2017-Feb-05 06:33N 44°44' E 014°09'2421.7
2017-Feb-05 05:26N 45°08' E 014°14'1415.6
2017-Feb-05 04:32N 45°19' E 014°27'3 0.1
2017-Feb-04 03:33N 45°18' E 014°24'1110.3
2017-Feb-04 02:30N 45°08' E 014°16'1111.9
2017-Feb-04 01:33N 44°57' E 014°13'1212.1
2017-Feb-04 00:33N 44°47' E 014°04'1110.7
2017-Feb-03 23:33N 44°42' E 013°51'1211.9
2017-Feb-03 22:33N 44°50' E 013°38'1212.2
2017-Feb-03 21:33N 44°59' E 013°25'1212.5
2017-Feb-03 20:33N 45°04' E 013°10'1211.5
2017-Feb-03 19:33N 45°15' E 013°04'1212.0
2017-Feb-03 18:33N 45°27' E 013°04'1211.9
2017-Feb-03 17:33N 45°33' E 013°18'1212.4
2017-Feb-03 16:33N 45°38' E 013°34'8 8.2
2017-Feb-03 15:33N 45°38' E 013°46'0 0.0
2017-Feb-03 14:30N 45°38' E 013°46'0 0.0
2017-Feb-03 13:24N 45°38' E 013°46'0 0.0
2017-Feb-03 12:33N 45°38' E 013°46'0 0.0
2017-Feb-03 11:33N 45°38' E 013°46'0 0.0
2017-Feb-03 10:33N 45°38' E 013°46'0 0.0
2017-Feb-03 09:30N 45°38' E 013°46'0 0.0
2017-Feb-03 08:33N 45°38' E 013°46'0 0.0
2017-Feb-03 07:33N 45°38' E 013°46'0 0.0
2017-Feb-03 06:27N 45°38' E 013°46'0 0.0
2017-Feb-03 05:30N 45°38' E 013°46'0 0.0
2017-Feb-03 04:33N 45°38' E 013°46'0 0.0
2017-Feb-03 03:21N 45°38' E 013°46'0 0.0
2017-Feb-03 02:30N 45°38' E 013°46'0 0.0
2017-Feb-03 01:30N 45°38' E 013°46'0 0.0
2017-Feb-03 00:33N 45°38' E 013°46'0 0.0
2017-Feb-02 23:33N 45°38' E 013°46'0 0.0
2017-Feb-02 22:33N 45°38' E 013°46'0 0.0
2017-Feb-02 21:33N 45°38' E 013°46'0 0.0
2017-Feb-02 20:33N 45°38' E 013°46'0 0.0
2017-Feb-02 19:30N 45°38' E 013°46'0 0.0
2017-Feb-02 18:33N 45°38' E 013°46'0 0.0
2017-Feb-02 17:33N 45°38' E 013°46'0 0.0
2017-Feb-02 16:24N 45°38' E 013°46'0 0.0
2017-Feb-02 15:30N 45°38' E 013°46'0 0.0
2017-Feb-02 14:27N 45°38' E 013°46'0 0.0
2017-Feb-02 13:33N 45°38' E 013°46'0 0.0
2017-Feb-02 12:33N 45°38' E 013°46'0 0.0
2017-Feb-02 11:33N 45°38' E 013°46'0 0.0
2017-Feb-02 10:33N 45°38' E 013°46'0 0.0
2017-Feb-02 09:30N 45°38' E 013°46'0 0.0
2017-Feb-02 08:33N 45°38' E 013°46'0 0.0
2017-Feb-02 07:30N 45°38' E 013°46'0 0.0
2017-Feb-02 06:33N 45°38' E 013°46'0 0.0
2017-Feb-02 05:30N 45°38' E 013°46'0 0.0
2017-Feb-02 04:33N 45°38' E 013°46'0 0.0
2017-Feb-02 03:30N 45°38' E 013°46'0 0.0
2017-Feb-02 02:33N 45°38' E 013°46'0 0.0
2017-Feb-02 01:27N 45°38' E 013°46'0 0.0
2017-Feb-02 00:21N 45°38' E 013°46'0 0.6
2017-Feb-01 23:34N 45°37' E 013°45'4 4.3
2017-Feb-01 22:33N 45°36' E 013°39'4 4.3
2017-Feb-01 21:33N 45°33' E 013°44'0 0.1
2017-Feb-01 20:24N 45°33' E 013°44'0 0.0
2017-Feb-01 19:30N 45°33' E 013°44'0 0.0
2017-Feb-01 18:24N 45°33' E 013°44'0 0.0
2017-Feb-01 17:30N 45°33' E 013°44'0 0.0
2017-Feb-01 16:33N 45°33' E 013°44'0 0.0
2017-Feb-01 15:27N 45°33' E 013°44'0 0.0
2017-Feb-01 14:18N 45°33' E 013°44'0 0.0
2017-Feb-01 12:33N 45°33' E 013°44'0 0.0
2017-Feb-01 11:33N 45°33' E 013°44'0 0.0
2017-Feb-01 10:30N 45°33' E 013°44'0 0.0
2017-Feb-01 09:30N 45°33' E 013°44'0 0.0
2017-Feb-01 08:27N 45°33' E 013°44'0 0.0
2017-Feb-01 07:30N 45°33' E 013°44'0 0.0
2017-Feb-01 06:33N 45°33' E 013°44'0 0.0
2017-Feb-01 05:30N 45°33' E 013°44'0 0.0
2017-Feb-01 04:33N 45°33' E 013°44'0 0.0
2017-Feb-01 03:30N 45°33' E 013°44'0 0.0
2017-Feb-01 02:33N 45°33' E 013°44'0 0.0
2017-Feb-01 01:30N 45°33' E 013°44'0 0.0
2017-Feb-01 00:21N 45°33' E 013°44'0 0.0
2017-Jan-31 23:33N 45°33' E 013°44'0 0.0
2017-Jan-31 22:33N 45°33' E 013°44'0 0.0
2017-Jan-31 21:27N 45°33' E 013°44'0 0.0
2017-Jan-31 20:33N 45°33' E 013°44'0 0.0
2017-Jan-31 19:33N 45°33' E 013°44'0 0.0
2017-Jan-31 18:33N 45°33' E 013°44'0 0.0
2017-Jan-31 17:30N 45°33' E 013°44'0 0.0
2017-Jan-31 16:30N 45°33' E 013°44'0 0.0
2017-Jan-31 15:33N 45°33' E 013°44'0 0.0
2017-Jan-31 14:33N 45°33' E 013°44'0 0.0
2017-Jan-31 13:33N 45°33' E 013°44'0 0.0
2017-Jan-31 12:33N 45°33' E 013°44'0 0.0
2017-Jan-31 11:27N 45°33' E 013°44'0 0.0
2017-Jan-31 10:27N 45°33' E 013°44'0 0.0
2017-Jan-31 09:27N 45°33' E 013°44'0 0.0
2017-Jan-31 08:27N 45°33' E 013°44'0 0.0
2017-Jan-31 07:33N 45°33' E 013°44'0 0.0
2017-Jan-31 06:33N 45°33' E 013°44'0 0.0
2017-Jan-31 05:33N 45°33' E 013°44'0 0.0
2017-Jan-31 04:33N 45°33' E 013°44'0 0.0
2017-Jan-31 03:30N 45°33' E 013°44'0 0.0
2017-Jan-31 02:33N 45°33' E 013°44'0 0.0
2017-Jan-31 01:21N 45°33' E 013°44'0 0.0
2017-Jan-31 00:27N 45°33' E 013°44'0 0.0
2017-Jan-30 23:30N 45°33' E 013°44'0 0.0
2017-Jan-30 22:33N 45°33' E 013°44'0 0.0
2017-Jan-30 21:33N 45°33' E 013°44'0 0.0
2017-Jan-30 20:33N 45°33' E 013°44'0 0.0
2017-Jan-30 19:33N 45°33' E 013°44'0 0.0
2017-Jan-30 18:27N 45°33' E 013°44'0 0.0
2017-Jan-30 17:27N 45°33' E 013°44'0 0.0
2017-Jan-30 16:27N 45°33' E 013°44'0 0.0
2017-Jan-30 15:30N 45°33' E 013°44'0 0.0
2017-Jan-30 14:33N 45°33' E 013°44'0 0.0
2017-Jan-30 13:33N 45°33' E 013°44'0 0.0
2017-Jan-30 12:33N 45°33' E 013°44'0 0.0
2017-Jan-30 11:33N 45°33' E 013°44'0 0.0
2017-Jan-30 10:33N 45°33' E 013°44'0 0.0
2017-Jan-30 09:33N 45°33' E 013°44'1 0.6
2017-Jan-30 08:33N 45°33' E 013°43'4 3.6
2017-Jan-30 07:33N 45°34' E 013°38'0 0.5
2017-Jan-30 06:33N 45°35' E 013°38'3 2.9
2017-Jan-30 05:33N 45°35' E 013°34'6 5.6
2017-Jan-30 04:33N 45°32' E 013°26'1 1.2
2017-Jan-30 03:33N 45°32' E 013°25'4 4.0
2017-Jan-30 02:33N 45°29' E 013°20'1515.3
2017-Jan-30 01:33N 45°15' E 013°13'1919.4
2017-Jan-30 00:33N 44°57' E 013°24'1919.4
2017-Jan-29 23:33N 44°41' E 013°39'1919.4
2017-Jan-29 22:33N 44°24' E 013°53'2219.5
2017-Jan-29 21:27N 44°06' E 014°10'  

Dump ship's entire track history